HOURLY OBS INDEX

032

North Coast - Herbert

CAPE FERGUSON NTC AWS

Site: 032182
Alt: 0.0m
26km E of TOWNSVILLE


  Time     Wind        Temp  DP   Baro     Rain since   Rain past  Vis(m), Cloud(base in m), Weather
  local        km/h                         9am  last   hr   10m    
Wed 16:00  ENE 13/ 20  23.6----  1013.4   ----  ----  ----  ----   ----- 
Wed 16:30  ENE  9/ 19  23.7----  1013.7   ----  ----  ----  ----   ----- 
Wed 17:00   NE 11/ 20  23.5----  1013.8   ----  ----  ----  ----   ----- 
Wed 17:30  ENE  7/ 17  23.6----  1013.9   ----  ----  ----  ----   ----- 
Wed 18:00   NE  6/ 11  23.5----  1014.1   ----  ----  ----  ----   ----- 
Wed 18:30   NE  6/  9  23.4----  1014.4   ----  ----  ----  ----   ----- 
Wed 19:00  ENE  7/ 11  23.5----  1014.6   ----  ----  ----  ----   ----- 
Wed 19:30   NE  7/ 15  23.5----  1015.0   ----  ----  ----  ----   ----- 
Wed 20:00   NE  4/  9  23.4----  1015.2   ----  ----  ----  ----   ----- 
Wed 20:30  NNE  6/  7  23.0----  1015.4   ----  ----  ----  ----   ----- 
Wed 21:00  ENE  7/ 11  23.4----  1015.8   ----  ----  ----  ----   ----- 

COWLEY BEACH (DEFENCE)

Site: 032194
Alt: 17.0m
km of


  Time     Wind        Temp  DP   Baro     Rain since   Rain past  Vis(m), Cloud(base in m), Weather
  local        km/h                         9am  last   hr   10m    
Wed 16:00    E  9/ 15  26.0 17.9  ------    0.0   0.0   0.0   0.0   ----- 
Wed 16:30    E  7/ 13  25.4 17.6  ------    0.0   0.0   0.0   0.0   ----- 
Wed 17:00    E  7/ 11  25.0 17.2  ------    0.0   0.0   0.0   0.0   ----- 
Wed 17:30  ESE  6/ 11  24.5 16.7  ------    0.0   0.0   0.0   0.0   ----- 
Wed 18:00  ESE  4/  7  24.0 16.5  ------    0.0   0.0   0.0   0.0   ----- 
Wed 18:30   SE  2/  4  23.3 16.6  ------    0.0   0.0   0.0   0.0   ----- 
Wed 19:00  ESE  4/  9  23.5 17.3  ------    0.0   0.0   0.0   0.0   ----- 
Wed 19:30  ESE  4/  9  23.4 16.7  ------    0.0   0.0   0.0   0.0   ----- 
Wed 20:00    E  4/  9  23.4 16.4  ------    0.0   0.0   0.0   0.0   ----- 
Wed 20:30    E  4/  6  22.6 16.2  ------    0.0   0.0   0.0   0.0   ----- 
Wed 21:00  WSW  4/  6  19.1 15.2  ------    0.0   0.0   0.0   0.0   ----- 

INNISFAIL AERODROME

Site: 032197
Alt: 11.8m
km of


  Time     Wind        Temp  DP   Baro     Rain since   Rain past  Vis(m), Cloud(base in m), Weather
  local        km/h                         9am  last   hr   10m    
Wed 16:00  ESE 15/ 20  25.7 17.4  1013.4    0.0   0.0   0.0   0.0   10000|SC 990 BR1200 BR1500 
Wed 16:30    E 15/ 22  25.1 17.8  1013.5    0.0   0.0   0.0   0.0   10000|BR 990 BR1200 
Wed 17:00    E 17/ 20  24.9 18.1  1013.8    0.0   0.0   0.0   0.0   10000|SC 840 SC 990 
Wed 17:30  ESE 13/ 15  24.0 17.7  1013.9    0.0   0.0   0.0   0.0   10000|SC 840 BR1110 
Wed 18:00  ESE  9/ 13  23.0 18.1  1014.1    0.0   0.0   0.0   0.0   10000|SC 840 
Wed 18:30   SE  9/  9  21.0 17.0  1014.4    0.0   0.0   0.0   0.0   10000 
Wed 19:00    C  0/  6  20.8 17.8  1014.6    0.0   0.0   0.0   0.0   10000 
Wed 19:30    C  0/  0  19.8 17.4  1015.0    0.0   0.0   0.0   0.0   10000 
Wed 20:00  SSW  2/  7  19.5 17.8  1015.4    0.0   0.0   0.0   0.0   10000 
Wed 20:30  WSW  7/  9  19.0 17.5  1015.7    0.0   0.0   0.0   0.0   10000 
Wed 21:00  WSW  7/  9  18.5 17.0  1015.9    0.0   0.0   0.0   0.0   10000 

LUCINDA POINT

Site: 032141
Alt: 10.0m
94km NNW of TOWNSVILLE


  Time     Wind        Temp  DP   Baro     Rain since   Rain past  Vis(m), Cloud(base in m), Weather
  local        km/h                         9am  last   hr   10m    
Wed 16:00    E 15/ 24  24.5 16.5  1013.4    0.0   0.0   0.0   0.0   ----- 
Wed 16:30    E 15/ 20  24.8 16.2  1013.5    0.0   0.0   0.0   0.0   ----- 
Wed 17:00  ENE 17/ 24  24.3 17.1  1013.9    0.0   0.0   0.0   0.0   ----- 
Wed 17:30  ENE 15/ 20  24.2 16.7  1014.0    0.0   0.0   0.0   0.0   ----- 
Wed 18:00   NE 15/ 19  23.8 16.6  1014.1    0.0   0.0   0.0   0.0   ----- 
Wed 18:30   NE 15/ 19  23.7 17.2  1014.3    0.0   0.0   0.0   0.0   ----- 
Wed 19:00  NNE 17/ 19  23.7 17.0  1014.4    0.0   0.0   0.0   0.0   ----- 
Wed 19:30  NNE 15/ 19  23.7 17.2  1014.7    0.0   0.0   0.0   0.0   ----- 
Wed 20:00    N 11/ 17  23.7 16.7  1014.9    0.0   0.0   0.0   0.0   ----- 
Wed 20:30    N 11/ 15  23.6 16.9  1015.3    0.0   0.0   0.0   0.0   ----- 
Wed 21:00   NE 11/ 13  23.7 17.0  1015.7    0.0   0.0   0.0   0.0   ----- 

MOUNT STUART (DEFENCE)

Site: 032195
Alt: 163.0m
17km SSW of TOWNSVILLE


  Time     Wind        Temp  DP   Baro     Rain since   Rain past  Vis(m), Cloud(base in m), Weather
  local        km/h                         9am  last   hr   10m    
Wed 16:00   NE 20/ 32  24.6 14.1  ------    0.0   0.0   0.0   0.0   ----- 
Wed 16:30   NE 13/ 19  24.9 14.1  ------    0.0   0.0   0.0   0.0   ----- 
Wed 17:00  NNE 17/ 28  23.6 14.3  ------    0.0   0.0   0.0   0.0   ----- 
Wed 17:30  NNE 19/ 28  22.7 14.3  ------    0.0   0.0   0.0   0.0   ----- 
Wed 18:00  NNE 19/ 26  22.3 15.2  ------    0.0   0.0   0.0   0.0   ----- 
Wed 18:30  NNE 13/ 20  21.7 15.1  ------    0.0   0.0   0.0   0.0   ----- 
Wed 19:00  NNE 13/ 20  21.5 15.1  ------    0.0   0.0   0.0   0.0   ----- 
Wed 19:30   NE 15/ 19  21.3 15.4  ------    0.0   0.0   0.0   0.0   ----- 
Wed 20:00   NE 15/ 19  21.3 15.4  ------    0.0   0.0   0.0   0.0   ----- 
Wed 20:30   NE  9/ 15  21.2 15.3  ------    0.0   0.0   0.0   0.0   ----- 
Wed 21:00   NE  6/  9  20.9 15.2  ------    0.0   0.0   0.0   0.0   ----- 

SOUTH JOHNSTONE EXP STN

Site: 032037
Alt: 18.3m
81km SSE of CAIRNS


  Time     Wind        Temp  DP   Baro     Rain since   Rain past  Vis(m), Cloud(base in m), Weather
  local        km/h                         9am  last   hr   10m    
Wed 16:00  ESE 13/ 19  25.2 16.8  1013.9    0.6   0.0   0.0   0.0   ----- 
Wed 16:30   SE 11/ 19  25.8 17.1  1014.1    0.6   0.0   0.0   0.0   ----- 
Wed 17:00  ESE 13/ 19  24.8 17.8  1014.4    0.6   0.0   0.0   0.0   ----- 
Wed 17:30   SE  7/ 13  24.0 17.9  1014.4    0.6   0.0   0.0   0.0   ----- 
Wed 18:00   SE  7/ 13  23.5 17.9  1014.7    0.6   0.0   0.0   0.0   ----- 
Wed 18:30    C  0/  6  22.5 18.2  1014.9    0.6   0.0   0.0   0.0   ----- 
Wed 19:00    C  0/  0  21.6 17.9  1015.1    0.6   0.0   0.0   0.0   ----- 
Wed 19:30    C  0/  0  20.9 17.8  1015.6    0.6   0.0   0.0   0.0   ----- 
Wed 20:00    S  2/ 11  20.4 18.1  1016.0    0.6   0.0   0.0   0.0   ----- 
Wed 20:30  WSW  9/ 11  20.1 18.2  1016.3    0.6   0.0   0.0   0.0   ----- 
Wed 21:00    W  7/ 11  19.4 17.9  1016.5    0.6   0.0   0.0   0.0   ----- 

TOWNSVILLE - AIR WEAPONS RANGE (DEFENCE)

Site: 032196
Alt: 384.0m
60km W of TOWNSVILLE


  Time     Wind        Temp  DP   Baro     Rain since   Rain past  Vis(m), Cloud(base in m), Weather
  local        km/h                         9am  last   hr   10m    
Wed 16:00    E 19/ 28  25.9 14.1  ------    0.0   0.0   0.0   0.0   ----- 
Wed 16:30    E 22/ 33  24.6 14.4  ------    0.0   0.0   0.0   0.0   ----- 
Wed 17:00    E 20/ 26  23.6 14.3  ------    0.0   0.0   0.0   0.0   ----- 
Wed 17:30  ENE 17/ 28  22.6 13.7  ------    0.0   0.0   0.0   0.0   ----- 
Wed 18:00  ENE 13/ 19  21.4 13.6  ------    0.0   0.0   0.0   0.0   ----- 
Wed 18:30  ENE 15/ 19  20.4 13.6  ------    0.0   0.0   0.0   0.0   ----- 
Wed 19:00    E 15/ 22  19.7 13.6  ------    0.0   0.0   0.0   0.0   ----- 
Wed 19:30    E 15/ 19  19.3 13.7  ------    0.0   0.0   0.0   0.0   ----- 
Wed 20:00  ENE 13/ 19  19.2 13.6  ------    0.0   0.0   0.0   0.0   ----- 
Wed 20:30    E 15/ 20  19.1 13.5  ------    0.0   0.0   0.0   0.0   ----- 
Wed 21:00  ENE 15/ 20  19.0 13.6  ------    0.0   0.0   0.0   0.0   ----- 

TOWNSVILLE AERO

Site: 032040
Alt: 4.3m
5km WNW of TOWNSVILLE


  Time     Wind        Temp  DP   Baro     Rain since   Rain past  Vis(m), Cloud(base in m), Weather
  local        km/h                         9am  last   hr   10m    
Wed 16:00   NE 26/ 33  25.4 14.9  1013.6    0.0   0.0   0.0   0.0  *10000|FE1350cu 
Wed 16:30  ENE 24/ 30  25.4 15.3  1013.7    0.0   0.0   0.0   0.0  *10000|FE1350cu 
Wed 17:00   NE 22/ 28  24.7 15.2  1014.0    0.0   0.0   0.0   0.0  *10000|FE1350cu 
Wed 17:30  ENE 19/ 24  24.3 16.1  1014.1    0.0   0.0   0.0   0.0   10000 
Wed 18:00  ENE 15/ 19  23.4 15.8  1014.2    0.0   0.0   0.0   0.0   10000 
Wed 18:30  ENE 13/ 15  22.7 16.1  1014.4    0.0   0.0   0.0   0.0   10000 
Wed 19:00  ENE 11/ 15  22.2 16.6  1014.7    0.0   0.0   0.0   0.0   10000 
Wed 19:30  ENE 15/ 22  22.3 16.7  1015.1    0.0   0.0   0.0   0.0   10000 
Wed 20:00   NE 13/ 15  22.2 16.8  1015.4    0.0   0.0   0.0   0.0   10000 
Wed 20:30  ENE 11/ 15  21.8 16.3  1015.6    0.0   0.0   0.0   0.0   10000 
Wed 21:00   NE  7/  9  21.0 17.1  1016.0    0.0   0.0   0.0   0.0   10000